Kanta, Srinual
ThailandWomanBorn 19792021 – 2026Runner id 1672413
Events
34
2021 – 2026
Best pace
9.112
km/h · 2025
Best finish
22nd
of 485 · 2025
Distance raced
2,443
km · splits not double-counted
Pace over time
km/h · higher is faster
Pace over time: 34 races from 2021 to 2026, ranging from 2.80 to 9.70 kilometres per hour, where higher is faster. A second, age-graded series is drawn above it; the gap between the two is the age credit.
- Actual pace
- Age-graded pace
Results
| Date | Event | Distance | Result | Pace km/h | Placing |
|---|---|---|---|---|---|
| 2021-11-27 | CM6 Run - CM3 64 KmThailand | 62.9km | 11:44:08 h | 5.360 | 26/326 |
| 2021-12-11 | Thailand by UTMB - 54kmThailand | 54km | 10:28:38 h | 5.154 | 83/408 |
| 2022-06-25 | CNX 60K Ultra MarathonThailand | 60km | 6:41:41 h | 8.962 | 23/158 |
| 2022-08-26 | Ultra-Trail Chiangmai 65 KmThailand | 65km | 10:14:31 h | 6.346 | 14/122 |
| 2022-10-01 | 50km | 11:00:59 h | 4.539 | 9/108 | |
| 2022-11-05 | Doi Nhok Trail - 56kmThailand | 56km | 13:19:24 h | 4.203 | 11/119 |
| 2022-11-27 | Ultra-trail Doi Soi MalaiThailand | 55km | 8:55:22 h | 6.164 | 9/32 |
| 2022-12-17 | Mt. APO Sky & Vertical 100 Km RacePhilippines | 75km | 18:26:46 h | 4.066 | 33/42 |
| 2023-01-08 | 50km | 7:15:33 h | 6.888 | 40/417 | |
| 2023-03-05 | Phuket 100K Ultra MarathonThailand | 100km | 13:32:08 h | 7.388 | 47/147 |
| 2023-06-18 | Thailand 100K Ultra MarathonThailand | 100km | 11:46:18 h | 8.495 | 55/434 |
| 2023-07-30 | Doi Chang Mountain RunThailand | 45km | 8:15:43 h | 5.447 | 10/53 |
| 2023-09-02 | Ultra-Trail Chiangmai 100 KmThailand | 104km | 18:17:45 h | 5.684 | 11/95 |
| 2023-09-24 | SAKAD Scenic TrailThailand | 54km | 9:05:57 h | 5.935 | 23/156 |
| 2023-10-07 | CNX 100K Ultra MarathonThailand | 100km | 11:56:08 h | 8.378 | 41/345 |
| 2023-12-16 | Khaoyai 100K Ultra Road MarathonThailand | 100km | 12:20:59 h | 8.097 | 61/647 |
| 2024-06-30 | Luang Phayao Mountain RunThailand | 54km | 13:10:11 h | 4.100 | 20/47 |
| 2024-08-11 | Tak Trail - TT50Thailand | 50km | 7:53:02 h | 6.342 | 17/153 |
| 2024-08-24 | Lampang 65Thailand | 65km | 12:58:15 h | 5.011 | 8/54 |
| 2024-09-08 | Ultra-Trail Khao EtoThailand | 58km | 10:04:10 h | 5.760 | 11/115 |
| 2024-10-20 | Khaoyai X TrailThailand | 50km | 6:50:47 h | 7.303 | 23/235 |
| 2024-11-02 | Tanaosri Trail 100kmThailand | 100km | 22:54:39 h | 4.365 | 25/111 |
| 2025-01-25 | 24h | 113.400 km | 4.725 | 27/144 | |
| 2025-02-07 | 100mi | 24:01:09 h | 6.700 | 22/485 | |
| 2025-05-04 | 45km | 7:06:22 h | 6.333 | 4/42 | |
| 2025-08-03 | Thailand 100K Ultra MarathonThailand | 100km | 10:58:30 h | 9.112 | 29/461 |
| 2025-08-23 | Lampang 100Thailand | 100km | 27:04:42 h | 3.693 | 8/27 |
| 2025-09-27 | Chiangmai 12 Hr Challenge NightThailand | 12h | 103.339 km | 8.612 | 5/32 |
| 2025-10-26 | Ultra Nakee Naka TrailThailand | 50km | 8:33:02 h | 5.848 | 8/98 |
| 2026-02-22 | Ultra Trail Phu WiangThailand | 63km | 9:41:18 h | 6.503 | 6/49 |
| 2026-03-29 | Hatyai Khohong TrailThailand | 50km | 8:46:36 h | 5.697 | 20/146 |
| 2026-05-16 | Phatad Trail 45kmThailand | 45km | 8:35:33 h | 5.237 | 6/88 |
| 2026-06-06 | KAPONG TRAIL PhangNga 55kmThailand | 50km | 17:50:00 h | 2.804 | 2/20 |
| 2026-06-28 | Luang Phayao Mountain RunThailand | 54km | 13:02:46 h | 4.139 | 25/51 |